Stevensville, MT

8:10 PM MDT on April 28, 2017 (GMT -0600)
SteviBigSky | | Change Station

Elev 3415 ft 46.49 °N, 114.07 °W | Updated 29 seconds ago

Partly Cloudy
Partly Cloudy
49.8 °F
Feels Like 48 °F
N
4.5
Wind Variable Wind from NW
Gusts 4.9 mph

Today
High -- | Low -- °F
--% Chance of Precip.
Yesterday
High -- | Low -- °F
Precip. -- in
Pressure 30.18 in
Visibility 10.0 miles
Clouds Mostly Cloudy 5500 ft
Mostly Cloudy 7500 ft
Mostly Cloudy 10000 ft
Windchill 48 °F
Dew Point 33 °F
Humidity 53%
Rainfall 0.00 in
Snow Depth Not available.
6:26 AM 8:42 PM
Waxing Crescent, 10% visible
METAR KMSO 290153Z 34008KT 10SM BKN055 BKN075 BKN100 11/M01 A3015 RMK AO2 SLP220 T01061006
Pressure 30.18 in
Visibility 10.0 miles
Clouds Mostly Cloudy 5500 ft
Mostly Cloudy 7500 ft
Mostly Cloudy 10000 ft
Windchill 48 °F
Dew Point 33 °F
Humidity 53%
Rainfall 0.00 in
Snow Depth Not available.
6:26 AM 8:42 PM
Waxing Crescent, 10% visible
METAR KMSO 290153Z 34008KT 10SM BKN055 BKN075 BKN100 11/M01 A3015 RMK AO2 SLP220 T01061006

Get Severe Weather Alerts

Thanks for signing up!

Be on the lookout for a verification email in your inbox.

You'll start receiving the daily forecast at 8 AM.

×

10-Day Weather Forecast

Almanac

Astronomy

Apr. 28, 2017 Rise Set
Actual Time
Civil Twilight
Nautical Twilight
Astronomical Twilight
Moon
Length of Visible Light
Length of Day
Tomorrow will be .
, % of the Moon is Illuminated

Today's Extremes

State Highs State Lows

Community

WunderPhotos

WunderBlog® & News

Nearby

Air Quality

  Air Quality AQ Index Pollutant
Not available.

Snow Depth

Station Depth Elevation

Earthquake Activity

City Distance Mag. Time & Date
Minimum magnitude displayed is 2.5.

Coastal Water Temperatures

Place Temperature

Stations

Nearby Weather Stations

Station Location Temp. Windchill Dew Point Humidity Wind Precip. Elev Updated Type
                   

Watches & Warnings

There are currently no watches in effect.